createdAt,value
2017-11-16T00:00:32.944Z,1.43
2017-11-16T00:03:00.969Z,1.47
2017-11-16T00:05:28.836Z,1.80
2017-11-16T00:07:57.448Z,1.77
2017-11-16T00:10:26.093Z,1.57
2017-11-16T00:12:53.986Z,1.50
2017-11-16T00:15:21.788Z,1.30
2017-11-16T00:17:49.705Z,1.83
2017-11-16T00:20:17.540Z,1.50
2017-11-16T00:22:45.329Z,1.90
2017-11-16T00:25:13.767Z,2.17
2017-11-16T00:27:41.569Z,1.83
2017-11-16T00:30:09.440Z,1.80
2017-11-16T00:32:37.262Z,1.77
2017-11-16T00:35:05.403Z,1.80
2017-11-16T00:37:33.274Z,1.70
2017-11-16T00:40:01.385Z,1.80
2017-11-16T00:42:29.301Z,1.90
2017-11-16T00:44:57.322Z,2.00
2017-11-16T00:47:25.117Z,1.73
2017-11-16T00:49:52.909Z,1.73
2017-11-16T00:52:20.732Z,2.30
2017-11-16T00:54:48.540Z,1.80
2017-11-16T00:57:17.155Z,1.70
2017-11-16T00:59:44.968Z,1.60
2017-11-16T01:02:12.766Z,2.10
2017-11-16T01:04:40.588Z,1.80
2017-11-16T01:07:08.406Z,2.00
2017-11-16T01:09:36.276Z,2.20
2017-11-16T01:12:04.108Z,1.57
2017-11-16T01:14:31.973Z,1.47
2017-11-16T01:17:00.680Z,1.80
2017-11-16T01:19:28.490Z,1.33
2017-11-16T01:21:56.343Z,1.90
2017-11-16T01:24:24.130Z,1.60
2017-11-16T01:26:51.905Z,1.30
2017-11-16T01:29:19.737Z,2.17
2017-11-16T01:31:47.545Z,1.40
2017-11-16T01:34:15.396Z,1.50
2017-11-16T01:36:43.252Z,1.30
2017-11-16T01:39:11.085Z,2.10
2017-11-16T01:41:39.004Z,1.70
2017-11-16T01:44:06.848Z,1.90
2017-11-16T01:46:34.633Z,1.33
2017-11-16T01:49:02.434Z,1.80
2017-11-16T01:51:30.257Z,2.37
2017-11-16T02:01:01.395Z,1.80
2017-11-16T02:03:29.226Z,1.83
2017-11-16T02:05:57.246Z,2.27
2017-11-16T02:08:25.096Z,1.67
2017-11-16T02:10:52.953Z,1.43
2017-11-16T02:13:20.804Z,1.37
2017-11-16T02:15:48.677Z,1.63
2017-11-16T02:18:16.605Z,1.80
2017-11-16T02:20:44.553Z,1.30
2017-11-16T02:23:12.680Z,1.37
2017-11-16T02:25:40.775Z,1.50
2017-11-16T02:28:08.882Z,1.50
2017-11-16T02:30:37.076Z,1.60
2017-11-16T02:33:05.043Z,2.20
2017-11-16T02:35:33.123Z,1.73
2017-11-16T02:38:01.147Z,1.80
2017-11-16T02:40:29.409Z,1.60
2017-11-16T02:42:57.523Z,1.90
2017-11-16T02:45:25.433Z,1.53
2017-11-16T02:47:53.398Z,2.00
2017-11-16T02:50:21.339Z,2.30
2017-11-16T02:52:49.295Z,2.00
2017-11-16T02:55:17.266Z,2.50
2017-11-16T02:57:45.330Z,3.53
2017-11-16T03:04:34.527Z,2.60
2017-11-16T03:21:13.970Z,1.63
2017-11-16T03:23:43.190Z,1.30
2017-11-16T03:26:50.100Z,3.00
2017-11-16T03:47:32.015Z,1.93
2017-11-16T03:50:09.025Z,1.50
2017-11-16T03:53:25.364Z,1.60
2017-11-16T03:55:53.316Z,1.67
2017-11-16T03:58:43.658Z,1.80
2017-11-16T04:08:28.033Z,1.50
2017-11-16T04:10:55.926Z,1.73
2017-11-16T04:14:01.795Z,2.13
2017-11-16T04:16:29.705Z,1.47
2017-11-16T04:19:00.137Z,1.43
2017-11-16T04:21:29.253Z,1.93
2017-11-16T04:34:40.459Z,2.10
2017-11-16T04:40:41.135Z,1.80
2017-11-16T04:43:10.022Z,2.43
2017-11-16T04:45:37.966Z,1.87
2017-11-16T04:48:14.901Z,1.87
2017-11-16T04:51:31.116Z,2.00
2017-11-16T04:53:59.188Z,1.50
2017-11-16T04:56:29.816Z,2.13
2017-11-16T04:58:59.064Z,1.33
2017-11-16T05:05:22.155Z,1.30
2017-11-16T05:11:21.654Z,1.80
2017-11-16T05:31:53.356Z,1.70
2017-11-16T05:34:21.215Z,2.30
2017-11-16T05:40:21.696Z,4.40
2017-11-16T05:43:03.625Z,3.20
2017-11-16T05:45:31.575Z,1.60
2017-11-16T05:48:00.938Z,1.70
2017-11-16T05:50:30.998Z,1.33
2017-11-16T05:53:00.280Z,1.50
2017-11-16T05:55:29.751Z,1.93
2017-11-16T06:01:29.287Z,1.93
2017-11-16T06:03:58.808Z,1.57
2017-11-16T06:07:11.526Z,1.43
2017-11-16T06:09:39.443Z,1.17
2017-11-16T06:12:20.991Z,2.00
2017-11-16T06:14:48.941Z,1.83
2017-11-16T06:17:18.166Z,1.70
2017-11-16T06:20:04.543Z,1.70
2017-11-16T06:22:56.281Z,1.93
2017-11-16T06:25:24.110Z,1.73
2017-11-16T06:27:53.476Z,1.60
2017-11-16T06:30:34.689Z,1.63
2017-11-16T06:33:02.618Z,1.77
2017-11-16T06:35:32.081Z,1.63
2017-11-16T06:41:32.292Z,2.07
2017-11-16T06:44:01.621Z,2.00
2017-11-16T06:46:30.962Z,1.93
2017-11-16T06:49:19.685Z,2.23
2017-11-16T06:51:47.665Z,2.13
2017-11-16T06:54:17.735Z,2.43
2017-11-16T06:56:46.808Z,1.87
2017-11-16T06:59:31.690Z,2.30
2017-11-16T07:02:30.405Z,2.63
2017-11-16T07:04:58.226Z,3.17
2017-11-16T07:07:27.377Z,2.57
2017-11-16T07:13:27.992Z,2.60
2017-11-16T07:15:57.151Z,2.62
2017-11-16T07:18:26.327Z,2.53
2017-11-16T07:20:55.896Z,2.70
2017-11-16T07:23:25.297Z,2.40
2017-11-16T07:25:54.473Z,2.60
2017-11-16T07:28:32.648Z,2.47
2017-11-16T07:31:02.053Z,2.70
2017-11-16T07:33:31.040Z,3.13
2017-11-16T07:36:00.239Z,3.03
2017-11-16T07:39:04.486Z,2.67
2017-11-16T07:41:32.367Z,2.30
2017-11-16T07:44:02.743Z,2.30
2017-11-16T07:46:32.575Z,3.37
2017-11-16T07:49:02.053Z,2.37
2017-11-16T07:54:53.268Z,2.23
2017-11-16T08:01:06.960Z,2.77
2017-11-16T08:04:14.127Z,3.30
2017-11-16T08:20:42.994Z,5.43
2017-11-16T08:23:11.388Z,4.93
2017-11-16T08:25:39.309Z,5.73
2017-11-16T08:28:07.232Z,4.90
2017-11-16T08:30:35.204Z,5.37
2017-11-16T08:33:03.041Z,6.10
2017-11-16T08:35:31.033Z,4.90
2017-11-16T08:37:58.934Z,6.10
2017-11-16T08:40:26.913Z,4.67
2017-11-16T08:42:54.802Z,6.50
2017-11-16T08:45:22.798Z,3.80
2017-11-16T08:47:50.909Z,4.27
2017-11-16T08:50:19.480Z,4.33
2017-11-16T08:52:47.742Z,4.03
2017-11-16T08:55:15.686Z,4.37
2017-11-16T08:57:43.859Z,3.70
2017-11-16T09:00:11.827Z,3.77
2017-11-16T09:02:39.782Z,3.83
2017-11-16T09:05:07.722Z,4.63
2017-11-16T09:07:35.806Z,4.70
2017-11-16T09:10:03.823Z,4.53
2017-11-16T09:12:31.796Z,5.00
2017-11-16T09:15:00.526Z,4.20
2017-11-16T09:17:28.518Z,4.07
2017-11-16T09:19:56.422Z,4.40
2017-11-16T09:22:25.085Z,3.53
2017-11-16T09:24:53.752Z,4.47
2017-11-16T09:27:21.757Z,3.80
2017-11-16T09:29:50.402Z,3.60
2017-11-16T09:32:18.281Z,3.80
2017-11-16T09:34:46.154Z,3.03
2017-11-16T09:37:14.018Z,2.90
2017-11-16T09:39:42.694Z,2.97
2017-11-16T09:42:11.379Z,2.97
2017-11-16T09:44:39.341Z,2.87
2017-11-16T09:47:07.244Z,3.30
2017-11-16T09:49:35.133Z,3.30
2017-11-16T09:52:02.996Z,2.60
2017-11-16T09:54:30.980Z,3.03
2017-11-16T09:56:58.989Z,2.80
2017-11-16T09:59:26.892Z,2.90
2017-11-16T10:01:54.753Z,2.67
2017-11-16T10:04:22.676Z,2.53
2017-11-16T10:06:50.493Z,2.10
2017-11-16T10:09:18.410Z,3.90
2017-11-16T10:11:46.398Z,2.40
2017-11-16T10:14:15.007Z,3.17
2017-11-16T10:16:43.657Z,3.08
2017-11-16T10:19:11.508Z,2.78
2017-11-16T10:24:13.652Z,3.00
2017-11-16T10:26:41.474Z,3.42
2017-11-16T10:29:09.353Z,3.50
2017-11-16T10:31:37.998Z,2.10
2017-11-16T10:34:05.994Z,2.30
2017-11-16T10:36:34.085Z,2.30
2017-11-16T10:39:02.101Z,2.93
2017-11-16T10:41:31.212Z,3.60
2017-11-16T10:43:59.218Z,3.17
2017-11-16T10:46:27.880Z,3.30
2017-11-16T10:48:55.853Z,2.23
2017-11-16T10:51:23.716Z,2.60
2017-11-16T10:53:51.639Z,2.30
2017-11-16T10:56:19.523Z,3.00
2017-11-16T10:58:47.451Z,2.93
2017-11-16T11:01:15.337Z,1.97
2017-11-16T11:03:43.294Z,2.47
2017-11-16T11:06:11.122Z,2.93
2017-11-16T11:08:39.017Z,2.63
2017-11-16T11:11:07.718Z,1.97
2017-11-16T11:13:35.552Z,2.40
2017-11-16T11:16:03.383Z,2.50
2017-11-16T11:18:31.301Z,2.33
2017-11-16T11:20:59.194Z,2.90
2017-11-16T11:23:27.059Z,2.20
2017-11-16T11:25:54.893Z,1.77
2017-11-16T11:28:23.477Z,2.07
2017-11-16T11:30:52.057Z,2.30
2017-11-16T11:33:20.684Z,1.70
2017-11-16T11:35:48.502Z,1.63
2017-11-16T11:38:17.168Z,2.20
2017-11-16T11:40:45.053Z,1.60
2017-11-16T11:43:13.710Z,1.43
2017-11-16T11:45:41.574Z,2.80
2017-11-16T11:48:09.438Z,1.90
2017-11-16T11:50:37.282Z,1.70
2017-11-16T11:53:05.110Z,2.00
2017-11-16T11:55:33.752Z,1.77
2017-11-16T11:58:01.638Z,1.77
2017-11-16T12:00:29.507Z,2.27
2017-11-16T12:02:57.594Z,1.87
2017-11-16T12:05:26.193Z,2.13
2017-11-16T12:07:54.047Z,1.90
2017-11-16T12:10:22.750Z,5.03
2017-11-16T12:12:50.602Z,4.57
2017-11-16T12:15:19.203Z,4.67
2017-11-16T12:17:47.068Z,2.43
2017-11-16T12:20:15.019Z,3.00
2017-11-16T12:22:43.916Z,2.20
2017-11-16T12:25:11.795Z,2.23
2017-11-16T12:27:39.758Z,2.80
2017-11-16T12:30:07.734Z,2.20
2017-11-16T12:32:35.678Z,2.13
2017-11-16T12:35:03.615Z,1.93
2017-11-16T12:37:31.941Z,2.50
2017-11-16T12:39:59.932Z,2.03
2017-11-16T12:42:28.780Z,2.20
2017-11-16T12:44:57.603Z,2.40
2017-11-16T12:47:25.536Z,2.17
2017-11-16T12:49:54.221Z,1.40
2017-11-16T12:52:22.845Z,2.30
2017-11-16T12:54:50.808Z,2.17
2017-11-16T12:57:18.777Z,2.53
2017-11-16T12:59:46.636Z,1.73
2017-11-16T13:02:14.797Z,1.53
2017-11-16T13:04:42.643Z,2.67
2017-11-16T13:07:11.339Z,1.80
2017-11-16T13:09:39.981Z,1.90
2017-11-16T13:12:07.906Z,2.07
2017-11-16T13:14:35.770Z,1.50
2017-11-16T13:17:03.704Z,2.03
2017-11-16T13:19:31.522Z,2.00
2017-11-16T13:21:59.496Z,1.97
2017-11-16T13:24:27.416Z,1.70
2017-11-16T13:26:56.072Z,1.97
2017-11-16T13:29:23.884Z,1.63
2017-11-16T13:31:52.599Z,1.90
2017-11-16T13:34:20.612Z,1.80
2017-11-16T13:36:48.444Z,2.47
2017-11-16T13:39:16.373Z,1.63
2017-11-16T13:41:44.316Z,1.80
2017-11-16T13:44:12.241Z,1.43
2017-11-16T13:46:40.093Z,2.43
2017-11-16T13:49:07.939Z,1.43
2017-11-16T13:51:36.571Z,2.33
2017-11-16T13:54:04.543Z,2.30
2017-11-16T13:56:32.529Z,1.90
2017-11-16T13:59:01.278Z,2.60
2017-11-16T14:01:29.279Z,2.50
2017-11-16T14:03:57.196Z,2.00
2017-11-16T14:06:25.050Z,2.17
2017-11-16T14:08:52.990Z,1.80
2017-11-16T14:11:21.020Z,1.97
2017-11-16T14:13:48.899Z,1.90
2017-11-16T14:16:16.713Z,2.23
2017-11-16T14:18:45.348Z,1.90
2017-11-16T14:21:13.206Z,1.87
2017-11-16T14:23:41.135Z,2.17
2017-11-16T14:26:09.056Z,1.80
2017-11-16T14:28:36.962Z,2.60
2017-11-16T14:31:05.594Z,1.77
2017-11-16T14:33:33.897Z,2.20
2017-11-16T14:36:03.014Z,2.03
2017-11-16T14:38:31.616Z,1.87
2017-11-16T14:41:00.260Z,1.62
2017-11-16T14:43:28.280Z,1.60
2017-11-16T14:45:57.089Z,2.20
2017-11-16T14:48:25.024Z,1.73
2017-11-16T14:50:54.052Z,2.00
2017-11-16T14:53:21.895Z,1.80
2017-11-16T14:55:49.784Z,2.23
2017-11-16T14:58:17.609Z,1.90
2017-11-16T15:00:46.667Z,2.00
2017-11-16T15:03:14.776Z,1.93
2017-11-16T15:05:43.476Z,1.60
2017-11-16T15:08:11.290Z,2.10
2017-11-16T15:10:39.169Z,2.60
2017-11-16T15:13:07.028Z,2.23
2017-11-16T15:15:35.005Z,1.87
2017-11-16T15:18:02.876Z,1.60
2017-11-16T15:20:30.722Z,2.23
2017-11-16T15:22:58.591Z,3.00
2017-11-16T15:25:26.458Z,2.37
2017-11-16T15:27:55.924Z,1.77
2017-11-16T15:30:23.911Z,1.90
2017-11-16T15:32:51.909Z,2.37
2017-11-16T15:35:19.741Z,2.30
2017-11-16T15:37:47.648Z,2.00
2017-11-16T15:40:15.525Z,1.90
2017-11-16T15:42:44.195Z,2.97
2017-11-16T15:45:12.239Z,2.47
2017-11-16T15:47:40.077Z,1.67
2017-11-16T15:50:08.037Z,2.97
2017-11-16T15:52:35.869Z,2.07
2017-11-16T15:55:03.753Z,2.10
2017-11-16T15:57:32.416Z,2.17
2017-11-16T16:00:01.110Z,2.47
2017-11-16T16:02:28.958Z,1.93
2017-11-16T16:04:56.801Z,1.90
2017-11-16T16:07:24.760Z,2.40
2017-11-16T16:09:52.607Z,1.52
2017-11-16T16:12:20.510Z,2.30
2017-11-16T16:14:49.005Z,2.60
2017-11-16T16:17:16.960Z,2.47
2017-11-16T16:19:44.840Z,1.90
2017-11-16T16:22:13.399Z,2.63
2017-11-16T16:24:41.242Z,2.90
2017-11-16T16:27:09.245Z,3.27
2017-11-16T16:29:37.188Z,2.30
2017-11-16T16:32:05.047Z,2.83
2017-11-16T16:34:32.908Z,2.80
2017-11-16T16:37:00.768Z,3.10
2017-11-16T16:39:34.653Z,2.37
2017-11-16T16:42:02.715Z,2.30
2017-11-16T16:44:30.738Z,2.83
2017-11-16T16:46:58.585Z,2.73
2017-11-16T16:49:26.511Z,2.90
2017-11-16T16:51:54.409Z,2.47
2017-11-16T16:54:23.003Z,2.80
2017-11-16T16:56:51.790Z,2.10
2017-11-16T16:59:19.680Z,2.47
2017-11-16T17:01:47.561Z,2.47
2017-11-16T17:04:15.471Z,2.27
2017-11-16T17:06:43.291Z,2.40
2017-11-16T17:09:11.216Z,2.47
2017-11-16T17:11:39.933Z,4.10
2017-11-16T17:14:07.798Z,5.57
2017-11-16T17:16:35.609Z,3.80
2017-11-16T17:19:03.529Z,5.93
2017-11-16T17:21:31.372Z,3.40
2017-11-16T17:23:59.237Z,2.43
2017-11-16T17:26:27.091Z,3.03
2017-11-16T17:28:55.819Z,2.77
2017-11-16T17:31:23.713Z,3.40
2017-11-16T17:33:51.633Z,3.30
2017-11-16T17:36:19.522Z,2.87
2017-11-16T17:38:47.369Z,3.17
2017-11-16T17:41:15.220Z,3.00
2017-11-16T17:43:43.991Z,3.43
2017-11-16T17:46:12.630Z,3.93
2017-11-16T17:48:40.469Z,4.03
2017-11-16T17:51:08.435Z,4.60
2017-11-16T17:53:36.283Z,3.43
2017-11-16T17:56:04.993Z,4.87
2017-11-16T17:58:32.843Z,4.90
2017-11-16T18:01:01.437Z,5.50
2017-11-16T18:03:29.302Z,5.37
2017-11-16T18:05:57.133Z,4.60
2017-11-16T18:08:24.980Z,4.17
2017-11-16T18:10:53.023Z,3.27
2017-11-16T18:13:21.606Z,3.80
2017-11-16T18:15:49.525Z,4.00
2017-11-16T18:18:19.468Z,4.60
2017-11-16T18:20:47.301Z,4.50
2017-11-16T18:23:15.431Z,3.60
2017-11-16T18:25:43.791Z,3.70
2017-11-16T18:28:11.717Z,3.67
2017-11-16T18:30:40.341Z,3.03
2017-11-16T18:33:08.729Z,3.77
2017-11-16T18:35:36.674Z,3.20
2017-11-16T18:38:04.728Z,4.00
2017-11-16T18:40:33.366Z,3.30
2017-11-16T18:43:02.051Z,11.67
2017-11-16T18:45:30.825Z,112.60
2017-11-16T18:47:58.758Z,100.77
2017-11-16T18:50:27.733Z,68.73
2017-11-16T18:52:55.592Z,30.50
2017-11-16T18:55:23.589Z,19.90
2017-11-16T18:57:52.195Z,13.40
2017-11-16T19:00:20.074Z,7.80
2017-11-16T19:02:47.941Z,7.50
2017-11-16T19:05:15.826Z,6.07
2017-11-16T19:07:43.836Z,7.60
2017-11-16T19:10:12.466Z,9.40
2017-11-16T19:12:40.731Z,8.60
2017-11-16T19:15:08.776Z,6.53
2017-11-16T19:17:39.008Z,6.30
2017-11-16T19:20:07.223Z,5.20
2017-11-16T19:22:35.082Z,9.57
2017-11-16T19:25:02.940Z,6.40
2017-11-16T19:27:30.793Z,5.70
2017-11-16T19:29:58.747Z,3.93
2017-11-16T19:32:26.639Z,4.00
2017-11-16T19:34:54.526Z,3.97
2017-11-16T19:37:22.466Z,6.40
2017-11-16T19:39:50.417Z,6.63
2017-11-16T19:42:18.425Z,8.03
2017-11-16T19:44:46.370Z,12.30
2017-11-16T19:47:14.305Z,8.20
2017-11-16T19:49:43.024Z,5.93
2017-11-16T19:52:10.912Z,7.10
2017-11-16T19:54:38.769Z,4.80
2017-11-16T19:57:06.644Z,3.80
2017-11-16T19:59:34.616Z,6.77
2017-11-16T20:02:02.497Z,6.90
2017-11-16T20:04:30.400Z,8.40
2017-11-16T20:06:58.292Z,7.73
2017-11-16T20:09:26.173Z,6.50
2017-11-16T20:11:54.134Z,6.00
2017-11-16T20:14:22.095Z,7.40
2017-11-16T20:16:50.066Z,6.40
2017-11-16T20:19:18.771Z,4.50
2017-11-16T20:21:46.725Z,4.13
2017-11-16T20:24:14.572Z,5.80
2017-11-16T20:26:43.277Z,5.73
2017-11-16T20:29:15.036Z,8.80
2017-11-16T20:31:44.980Z,6.50
2017-11-16T20:34:13.686Z,6.27
2017-11-16T20:36:45.452Z,3.90
2017-11-16T20:39:20.320Z,4.97
2017-11-16T20:41:59.136Z,4.23
2017-11-16T20:44:33.674Z,4.90
2017-11-16T20:47:08.258Z,4.40
2017-11-16T20:49:54.649Z,3.50
2017-11-16T20:52:23.324Z,4.67
2017-11-16T20:54:51.201Z,3.27
2017-11-16T20:57:19.117Z,3.70
2017-11-16T20:59:47.010Z,3.73
2017-11-16T21:02:14.882Z,5.40
2017-11-16T21:04:43.052Z,3.20
2017-11-16T21:07:10.994Z,4.47
2017-11-16T21:09:38.825Z,4.00
2017-11-16T21:12:07.469Z,4.60
2017-11-16T21:14:35.588Z,50.40
2017-11-16T21:17:03.444Z,44.57
2017-11-16T21:19:32.123Z,24.93
2017-11-16T21:22:01.729Z,14.73
2017-11-16T21:24:30.372Z,9.53
2017-11-16T21:26:58.254Z,8.10
2017-11-16T21:29:26.170Z,5.07
2017-11-16T21:31:54.372Z,4.17
2017-11-16T21:34:22.210Z,4.10
2017-11-16T21:36:50.049Z,3.67
2017-11-16T21:40:16.567Z,4.27
2017-11-16T21:42:45.603Z,4.13
2017-11-16T21:45:13.689Z,4.70
2017-11-16T21:47:42.063Z,4.00
2017-11-16T21:50:10.036Z,4.80
2017-11-16T21:52:38.186Z,3.83
2017-11-16T21:55:06.836Z,3.10
2017-11-16T21:57:34.771Z,3.37
2017-11-16T22:00:02.688Z,3.30
2017-11-16T22:02:31.360Z,3.97
2017-11-16T22:04:59.192Z,3.30
2017-11-16T22:07:27.086Z,2.97
2017-11-16T22:09:54.990Z,3.00
2017-11-16T22:12:23.694Z,3.10
2017-11-16T22:14:51.608Z,4.10
2017-11-16T22:17:19.440Z,6.03
2017-11-16T22:19:47.389Z,3.60
2017-11-16T22:22:15.205Z,3.40
2017-11-16T22:24:43.066Z,4.20
2017-11-16T22:27:10.955Z,4.80
2017-11-16T22:29:38.795Z,4.20
2017-11-16T22:32:06.656Z,3.90
2017-11-16T22:34:34.682Z,3.77
2017-11-16T22:37:03.294Z,4.23
2017-11-16T22:39:31.117Z,3.47
2017-11-16T22:41:59.065Z,4.23
2017-11-16T22:44:26.968Z,3.87
2017-11-16T22:46:54.830Z,4.80
2017-11-16T22:49:22.704Z,4.63
2017-11-16T22:51:51.427Z,4.93
2017-11-16T22:54:19.319Z,3.77
2017-11-16T22:56:47.173Z,4.27
2017-11-16T22:59:15.052Z,5.37
2017-11-16T23:01:43.170Z,4.77
2017-11-16T23:04:10.978Z,5.50
2017-11-16T23:06:38.908Z,5.53
2017-11-16T23:09:06.797Z,5.10
2017-11-16T23:11:34.651Z,4.87
2017-11-16T23:14:02.508Z,5.23
2017-11-16T23:16:30.570Z,5.20
2017-11-16T23:18:58.474Z,5.23
2017-11-16T23:21:26.353Z,4.80
2017-11-16T23:23:54.312Z,5.47
2017-11-16T23:26:22.216Z,5.53
2017-11-16T23:28:50.153Z,6.47
2017-11-16T23:31:17.992Z,5.40
2017-11-16T23:33:45.957Z,5.17
2017-11-16T23:36:13.809Z,5.67
2017-11-16T23:38:41.678Z,9.13
2017-11-16T23:41:09.751Z,8.77
2017-11-16T23:43:37.676Z,5.07
2017-11-16T23:46:06.351Z,4.87
2017-11-16T23:48:34.181Z,4.10
2017-11-16T23:51:02.016Z,4.13
2017-11-16T23:53:30.720Z,3.80
2017-11-16T23:56:00.464Z,4.90
2017-11-16T23:58:28.401Z,5.57
